Time;durP1;ratioP1;P1;durP2;ratioP2;P2;SDS_P1;SDS_P2;PMS_P1;PMS_P2;Temp;Humidity;BMP_temperature;BMP_pressure;BME280_temperature;BME280_humidity;BME280_pressure;Samples;Min_cycle;Max_cycle;Signal;HPM_P1;HPM_P2
2021/01/18 00:01:29;;;;;;;35.92;17.10;;;;;;;-2.62;85.91;98580.81;5113638;28;19994;-75
2021/01/18 00:03:54;;;;;;;39.63;17.38;;;;;;;-2.62;85.50;98586.19;5113524;28;20023;-74
2021/01/18 00:06:20;;;;;;;39.47;17.73;;;;;;;-2.61;85.73;98584.34;5113276;28;20034;-76
2021/01/18 00:08:46;;;;;;;;;;;;;;;-2.56;85.79;98588.06;5112211;28;20115;-75
2021/01/18 00:11:12;;;;;;;38.22;18.10;;;;;;;-2.60;85.87;98594.84;5111683;28;20431;-76
2021/01/18 00:13:38;;;;;;;37.95;18.70;;;;;;;-2.61;85.63;98606.59;5112827;28;20039;-77
2021/01/18 00:16:04;;;;;;;38.70;16.60;;;;;;;-2.63;85.70;98603.25;5113501;28;20400;-75
2021/01/18 00:18:31;;;;;;;41.05;18.92;;;;;;;-2.64;86.08;98608.81;5113353;28;20032;-74
2021/01/18 00:20:56;;;;;;;32.60;16.58;;;;;;;-2.65;85.65;98602.63;5113237;28;20093;-76
2021/01/18 00:23:22;;;;;;;44.03;19.67;;;;;;;-2.65;85.55;98601.81;5113170;28;20083;-75
2021/01/18 00:25:47;;;;;;;;;;;;;;;-2.55;85.57;98603.13;5111771;28;20520;-76
2021/01/18 00:28:13;;;;;;;34.25;15.52;;;;;;;-2.53;85.44;98600.22;5111748;28;19920;-75
2021/01/18 00:30:39;;;;;;;;;;;;;;;-2.63;85.22;98610.47;5111753;28;20031;-75
2021/01/18 00:33:05;;;;;;;41.53;17.50;;;;;;;-2.73;84.93;98600.13;5112150;28;19916;-76
2021/01/18 00:35:31;;;;;;;32.20;16.85;;;;;;;-2.54;85.05;98596.75;5111421;28;20027;-75
2021/01/18 00:37:57;;;;;;;39.15;17.40;;;;;;;-2.61;84.64;98603.91;5111301;28;20028;-74
2021/01/18 00:40:24;;;;;;;31.77;16.02;;;;;;;-2.62;85.11;98602.25;5112773;28;20028;-76
2021/01/18 00:42:50;;;;;;;34.53;17.45;;;;;;;-2.72;84.98;98596.41;5112352;28;20731;-75
2021/01/18 00:45:18;;;;;;;33.45;16.35;;;;;;;-2.75;84.96;98594.94;5112410;28;20046;-76
2021/01/18 00:47:47;;;;;;;32.05;17.95;;;;;;;-2.81;85.28;98593.06;5112734;28;20482;-75
2021/01/18 00:50:18;;;;;;;37.55;18.02;;;;;;;-2.87;85.88;98591.16;5112190;27;20482;-75
2021/01/18 00:52:46;;;;;;;29.60;17.48;;;;;;;-2.77;86.36;98591.66;5110987;28;20019;-76
2021/01/18 00:55:13;;;;;;;37.35;18.27;;;;;;;-2.56;86.20;98600.63;5111027;28;20438;-75
2021/01/18 00:57:39;;;;;;;29.13;17.25;;;;;;;-2.57;85.77;98588.28;5112374;28;20027;-74
2021/01/18 01:00:14;;;;;;;42.13;18.08;;;;;;;-2.62;85.31;98604.09;5112520;28;20027;-75
2021/01/18 01:02:40;;;;;;;39.53;17.63;;;;;;;-2.62;85.38;98604.91;5112710;28;20084;-75
2021/01/18 01:05:08;;;;;;;37.13;17.77;;;;;;;-2.65;85.78;98602.63;5110913;28;20480;-74
2021/01/18 01:07:45;;;;;;;41.42;17.85;;;;;;;-2.56;86.15;98605.97;5110823;28;20023;-75
2021/01/18 01:10:13;;;;;;;32.17;15.07;;;;;;;-2.61;86.14;98608.44;5111266;28;20476;-75
2021/01/18 01:12:39;;;;;;;32.38;16.08;;;;;;;-2.46;86.17;98603.78;5110635;28;20112;-74
2021/01/18 01:15:08;;;;;;;40.90;18.15;;;;;;;-2.46;86.15;98609.13;5112277;28;20077;-74
2021/01/18 01:17:44;;;;;;;35.22;17.40;;;;;;;-2.56;86.22;98605.97;5111456;28;20028;-74
2021/01/18 01:20:11;;;;;;;43.20;20.70;;;;;;;-2.59;86.02;98617.09;5111801;28;20035;-74
2021/01/18 01:22:38;;;;;;;34.63;17.55;;;;;;;-2.64;86.46;98615.00;5110696;28;20376;-75
2021/01/18 01:25:05;;;;;;;41.92;18.83;;;;;;;-2.66;86.49;98605.53;5110535;28;20506;-75
2021/01/18 01:27:31;;;;;;;37.17;18.02;;;;;;;-2.78;86.96;98594.50;5111708;28;20072;-76
2021/01/18 01:29:56;;;;;;;39.72;17.60;;;;;;;-2.82;87.08;98593.25;5111938;28;20451;-75
2021/01/18 01:32:21;;;;;;;;;;;;;;;-2.69;87.36;98596.00;5111005;28;20026;-76
2021/01/18 01:34:47;;;;;;;45.15;18.27;;;;;;;-2.72;87.10;98586.53;5109844;28;19994;-75
2021/01/18 01:37:12;;;;;;;;;;;;;;;-2.62;87.17;98596.88;5110374;28;20051;-76
2021/01/18 01:39:37;;;;;;;36.85;18.00;;;;;;;-2.65;87.05;98610.66;5109595;28;20391;-76
2021/01/18 01:42:03;;;;;;;;;;;;;;;-2.76;87.24;98605.88;5110818;28;20030;-75
2021/01/18 01:44:28;;;;;;;30.60;17.45;;;;;;;-2.84;87.84;98609.50;5111602;28;20390;-75
2021/01/18 01:46:54;;;;;;;43.17;20.65;;;;;;;-2.79;87.90;98615.09;5111489;28;20024;-75
2021/01/18 01:49:20;;;;;;;36.17;16.95;;;;;;;-2.85;87.83;98594.44;5111604;28;20024;-76
2021/01/18 01:51:48;;;;;;;39.22;20.42;;;;;;;-2.75;87.91;98604.81;5112239;28;20024;-76
2021/01/18 01:54:14;;;;;;;36.00;18.05;;;;;;;-2.67;87.40;98604.69;5111353;28;20060;-75
2021/01/18 01:56:40;;;;;;;41.15;18.38;;;;;;;-2.60;87.38;98610.91;5110022;28;20129;-75
2021/01/18 01:59:07;;;;;;;34.38;17.48;;;;;;;-2.62;87.24;98590.69;5111501;28;20027;-75
2021/01/18 02:01:34;;;;;;;37.40;20.58;;;;;;;-2.56;86.78;98589.91;5111378;28;20030;-76
2021/01/18 02:04:01;;;;;;;39.95;19.55;;;;;;;-2.63;87.13;98589.06;5111378;28;20069;-75
2021/01/18 02:06:26;;;;;;;39.50;19.48;;;;;;;-2.76;87.35;98589.81;5111027;28;20053;-75
2021/01/18 02:08:52;;;;;;;35.85;19.92;;;;;;;-2.80;87.77;98588.53;5109868;28;20020;-75
2021/01/18 02:11:18;;;;;;;;;;;;;;;-2.83;87.91;98599.63;5110189;28;20059;-75
2021/01/18 02:14:01;;;;;;;42.33;17.10;;;;;;;-2.71;88.04;98606.09;5110789;28;20415;-74
2021/01/18 02:16:32;;;;;;;33.90;17.30;;;;;;;-2.78;87.81;98583.81;5109357;28;20100;-76
2021/01/18 02:19:01;;;;;;;46.17;19.92;;;;;;;-2.66;87.37;98614.34;5109835;28;20027;-75
2021/01/18 02:21:51;;;;;;;36.50;18.98;;;;;;;-2.68;87.65;98597.66;5110972;28;20024;-74
2021/01/18 02:24:25;;;;;;;39.67;18.50;;;;;;;-2.61;87.34;98592.38;5109573;28;20138;-76
2021/01/18 02:27:28;;;;;;;36.95;18.08;;;;;;;-2.70;87.51;98605.09;5109816;28;20434;-75
2021/01/18 02:30:06;;;;;;;40.28;17.85;;;;;;;-2.66;87.61;98611.69;5109618;28;20114;-75
2021/01/18 02:32:34;;;;;;;51.40;20.23;;;;;;;-2.57;87.31;98613.22;5110171;28;20124;-75
2021/01/18 02:35:00;;;;;;;46.33;21.48;;;;;;;-2.54;86.34;98610.13;5111050;28;20032;-76
2021/01/18 02:38:02;;;;;;;40.00;18.45;;;;;;;-2.57;86.09;98615.88;5110839;28;20034;-75
2021/01/18 02:40:35;;;;;;;43.80;19.45;;;;;;;-2.64;86.09;98625.72;5109444;28;20384;-76
2021/01/18 02:43:09;;;;;;;38.38;19.63;;;;;;;-2.67;85.83;98614.56;5110750;28;20035;-75
2021/01/18 02:45:36;;;;;;;31.70;19.15;;;;;;;-2.54;86.03;98626.19;5110980;28;20085;-74
2021/01/18 02:48:02;;;;;;;35.83;18.05;;;;;;;-2.51;85.85;98616.94;5111265;28;20109;-74
2021/01/18 02:50:29;;;;;;;38.92;18.88;;;;;;;-2.53;85.97;98617.13;5110872;28;20035;-76
2021/01/18 02:52:55;;;;;;;33.97;18.42;;;;;;;-2.46;85.86;98623.38;5110841;28;20027;-75
2021/01/18 02:55:21;;;;;;;40.60;21.05;;;;;;;-2.50;86.05;98621.25;5110582;28;20076;-76
2021/01/18 02:57:48;;;;;;;45.03;20.27;;;;;;;-2.47;86.01;98619.03;5109431;28;20414;-75
2021/01/18 03:00:21;;;;;;;38.88;19.15;;;;;;;-2.56;86.06;98614.84;5109384;28;20051;-75
2021/01/18 03:02:53;;;;;;;37.58;21.42;;;;;;;-2.66;85.88;98611.69;5111174;28;20383;-77
2021/01/18 03:05:33;;;;;;;37.33;18.60;;;;;;;-2.71;86.26;98600.75;5110727;28;20536;-76
2021/01/18 03:08:11;;;;;;;37.90;20.17;;;;;;;-2.76;86.51;98595.97;5109437;28;20050;-75
2021/01/18 03:10:40;;;;;;;32.10;18.63;;;;;;;-2.71;86.26;98608.78;5110459;28;20023;-77
2021/01/18 03:13:21;;;;;;;39.83;18.80;;;;;;;-2.76;86.71;98611.22;5110604;28;20031;-76
2021/01/18 03:15:53;;;;;;;46.30;18.33;;;;;;;-2.76;86.44;98616.56;5110843;28;20031;-75
2021/01/18 03:18:22;;;;;;;37.45;17.95;;;;;;;-2.76;86.50;98608.53;5109598;28;20084;-77
2021/01/18 03:20:49;;;;;;;42.20;19.27;;;;;;;-2.72;86.63;98601.75;5109189;28;20024;-75
2021/01/18 03:23:14;;;;;;;41.78;19.45;;;;;;;-2.51;86.40;98615.09;5110455;28;20031;-76
2021/01/18 03:25:47;;;;;;;36.50;19.17;;;;;;;-2.56;86.24;98617.53;5108901;28;20056;-76
2021/01/18 03:28:12;;;;;;;34.97;18.83;;;;;;;-2.45;85.90;98608.97;5110863;28;20024;-75
2021/01/18 03:30:38;;;;;;;35.15;19.88;;;;;;;-2.54;85.71;98615.50;5109285;28;20494;-76
2021/01/18 03:33:03;;;;;;;41.53;17.70;;;;;;;-2.46;85.30;98615.34;5113372;28;20031;-75
2021/01/18 03:35:29;;;;;;;34.38;19.25;;;;;;;-2.45;85.42;98603.59;5114317;27;20480;-75
2021/01/18 03:37:56;;;;;;;33.80;18.58;;;;;;;-2.48;85.58;98619.22;5114205;28;20020;-75
2021/01/18 03:40:22;;;;;;;41.03;18.77;;;;;;;-2.52;86.11;98628.66;5114607;28;20066;-75
2021/01/18 03:42:58;;;;;;;46.00;19.15;;;;;;;-2.48;85.97;98625.41;5114251;28;20032;-76
2021/01/18 03:45:29;;;;;;;41.53;19.50;;;;;;;-2.51;86.30;98620.47;5114263;28;20092;-75
2021/01/18 03:47:54;;;;;;;36.40;18.42;;;;;;;-2.45;86.37;98635.75;5113053;28;20283;-75
2021/01/18 03:50:20;;;;;;;37.28;19.90;;;;;;;-2.59;87.16;98623.28;5113486;28;20023;-76
2021/01/18 03:52:50;;;;;;;40.03;19.60;;;;;;;-2.59;87.50;98628.63;5114196;28;20469;-75
2021/01/18 03:55:16;;;;;;;37.88;18.77;;;;;;;-2.59;87.83;98612.56;5114380;28;20031;-75
2021/01/18 03:57:45;;;;;;;38.30;20.27;;;;;;;-2.56;87.81;98622.03;5114071;28;20028;-75
2021/01/18 04:00:11;;;;;;;43.47;18.90;;;;;;;-2.54;88.03;98628.88;5113809;28;20023;-75
2021/01/18 04:02:37;;;;;;;37.22;19.35;;;;;;;-2.45;87.69;98618.84;5114256;27;20032;-76
2021/01/18 04:05:03;;;;;;;35.65;18.98;;;;;;;-2.55;87.66;98632.56;5113602;28;20058;-76
2021/01/18 04:07:29;;;;;;;43.47;19.20;;;;;;;-2.53;87.76;98632.34;5112386;28;20114;-75
2021/01/18 04:09:54;;;;;;;40.63;20.85;;;;;;;-2.69;87.71;98633.47;5112285;28;20106;-75
2021/01/18 04:12:19;;;;;;;;;;;;;;;-2.74;88.50;98630.56;5112756;28;20027;-76
2021/01/18 04:14:45;;;;;;;42.00;17.33;;;;;;;-2.61;89.03;98636.03;5113887;28;19918;-75
2021/01/18 04:17:11;;;;;;;34.13;19.05;;;;;;;-2.64;88.89;98630.22;5112903;28;20034;-75
2021/01/18 04:19:37;;;;;;;34.65;20.17;;;;;;;-2.64;89.02;98641.78;5112751;28;20024;-75
2021/01/18 04:22:06;;;;;;;;;;;;;;;-2.65;88.85;98637.44;5114793;28;20028;-75
2021/01/18 04:24:32;;;;;;;41.00;17.73;;;;;;;-2.70;89.24;98626.50;5113610;28;19927;-75
2021/01/18 04:26:58;;;;;;;41.83;20.02;;;;;;;-2.67;89.06;98617.25;5114520;28;20045;-75
2021/01/18 04:29:24;;;;;;;34.13;16.98;;;;;;;-2.74;88.27;98625.22;5112382;27;20451;-75
2021/01/18 04:31:49;;;;;;;;;;;;;;;-2.57;88.29;98631.94;5133666;27;20027;-75
2021/01/18 04:34:14;;;;;;;35.20;17.25;;;;;;;-2.60;88.23;98621.59;5132478;27;20341;-76
2021/01/18 04:36:40;;;;;;;31.20;15.68;;;;;;;-2.52;87.94;98631.34;5118801;27;20110;-75
2021/01/18 04:39:07;;;;;;;40.67;17.85;;;;;;;-2.50;88.18;98629.28;5113299;28;20027;-75
2021/01/18 04:41:37;;;;;;;37.08;17.55;;;;;;;-2.56;88.62;98622.03;5113300;28;20466;-75
2021/01/18 04:44:06;;;;;;;38.17;17.60;;;;;;;-2.55;88.04;98624.53;5113837;28;20447;-75
2021/01/18 04:46:37;;;;;;;37.80;17.63;;;;;;;-2.54;88.03;98636.09;5112499;28;20454;-75
2021/01/18 04:49:02;;;;;;;35.35;17.67;;;;;;;-2.74;87.82;98620.69;5113542;28;20107;-75
2021/01/18 04:51:44;;;;;;;34.78;18.55;;;;;;;-2.71;88.18;98632.84;5114011;28;20024;-76
2021/01/18 04:54:17;;;;;;;43.10;19.85;;;;;;;-2.58;87.77;98635.63;5114079;28;20027;-74
2021/01/18 04:57:03;;;;;;;42.45;18.02;;;;;;;-2.45;88.32;98640.25;5114506;28;20050;-75
2021/01/18 04:59:36;;;;;;;41.78;18.00;;;;;;;-2.56;87.71;98643.47;5112656;28;20472;-75
2021/01/18 05:02:16;;;;;;;34.25;17.30;;;;;;;-2.60;88.50;98640.34;5115280;28;20081;-75
2021/01/18 05:04:44;;;;;;;40.00;18.20;;;;;;;-2.69;88.68;98646.88;5113349;28;20063;-77
2021/01/18 05:07:31;;;;;;;38.78;17.40;;;;;;;-2.65;88.79;98650.00;5114087;28;20028;-76
2021/01/18 05:10:04;;;;;;;36.38;18.15;;;;;;;-2.70;88.87;98655.94;5114035;28;20023;-76
2021/01/18 05:12:31;;;;;;;34.60;17.15;;;;;;;-2.79;89.03;98647.19;5112726;28;20102;-76
2021/01/18 05:14:58;;;;;;;32.85;18.58;;;;;;;-2.74;89.21;98643.97;5111736;28;20024;-76
2021/01/18 05:17:41;;;;;;;33.15;17.25;;;;;;;-2.75;89.29;98648.47;5113132;28;20023;-76
2021/01/18 05:20:18;;;;;;;31.15;16.98;;;;;;;-2.64;89.01;98649.81;5112393;28;20132;-76
2021/01/18 05:22:48;;;;;;;36.72;17.30;;;;;;;-2.62;88.66;98645.06;5112277;28;20075;-75
2021/01/18 05:25:15;;;;;;;32.45;18.33;;;;;;;-2.62;88.66;98655.78;5110677;28;20496;-76
2021/01/18 05:28:06;;;;;;;31.88;15.18;;;;;;;-2.71;88.92;98656.94;5111118;28;20031;-76
2021/01/18 05:30:34;;;;;;;32.45;16.50;;;;;;;-2.69;88.87;98654.91;5110978;28;20373;-76
2021/01/18 05:33:05;;;;;;;38.05;19.85;;;;;;;-2.79;89.11;98660.56;5116482;28;20023;-76
2021/01/18 05:35:30;;;;;;;35.28;16.77;;;;;;;-2.94;89.39;98667.03;5115003;28;20035;-75
2021/01/18 05:37:59;;;;;;;43.25;19.20;;;;;;;-2.98;89.85;98661.25;5113562;27;20384;-75
2021/01/18 05:40:26;;;;;;;36.72;16.55;;;;;;;-3.03;90.09;98652.97;5112639;28;20069;-76
2021/01/18 05:42:53;;;;;;;40.33;16.27;;;;;;;-2.92;90.18;98665.00;5113823;28;20042;-77
2021/01/18 05:45:27;;;;;;;39.50;19.35;;;;;;;-3.07;89.99;98656.22;5111432;27;20084;-75
2021/01/18 05:47:54;;;;;;;43.90;17.13;;;;;;;-3.14;90.39;98648.13;5111546;28;20027;-75
2021/01/18 05:50:22;;;;;;;32.70;17.23;;;;;;;-3.07;90.07;98657.03;5111592;28;20507;-75
2021/01/18 05:52:47;;;;;;;35.65;15.40;;;;;;;-3.08;89.84;98659.91;5111545;28;20028;-75
2021/01/18 05:55:33;;;;;;;31.98;17.23;;;;;;;-2.90;89.51;98668.31;5109420;28;20099;-75
2021/01/18 05:58:03;;;;;;;31.17;14.88;;;;;;;-2.95;89.13;98670.75;5109326;28;20427;-76
2021/01/18 06:00:37;;;;;;;29.55;13.25;;;;;;;-3.06;89.10;98664.03;5111067;28;20020;-75
2021/01/18 06:03:07;;;;;;;41.13;16.65;;;;;;;-3.00;89.71;98657.94;5111653;28;20035;-75
2021/01/18 06:05:35;;;;;;;30.67;15.30;;;;;;;-3.15;89.26;98667.88;5109550;28;20471;-75
2021/01/18 06:08:12;;;;;;;27.40;13.50;;;;;;;-3.22;89.78;98671.47;5111646;28;20024;-75
2021/01/18 06:10:38;;;;;;;32.53;15.25;;;;;;;-3.22;90.28;98671.47;5109891;28;20475;-76
2021/01/18 06:13:03;;;;;;;32.53;14.65;;;;;;;-3.25;90.36;98668.19;5109828;28;20042;-75
2021/01/18 06:15:30;;;;;;;33.60;15.32;;;;;;;-3.27;90.98;98672.91;5097094;28;20012;-75
2021/01/18 06:17:57;;;;;;;47.90;16.95;;;;;;;-3.17;91.44;98679.78;5100597;28;20476;-75
2021/01/18 06:20:29;;;;;;;36.15;16.33;;;;;;;-3.21;91.36;98670.47;5100079;28;20073;-74
2021/01/18 06:22:57;;;;;;;36.03;15.70;;;;;;;-3.25;91.20;98678.88;5098719;28;20032;-75
2021/01/18 06:25:25;;;;;;;34.67;17.13;;;;;;;-3.21;91.42;98665.13;5097975;28;20127;-75
2021/01/18 06:27:51;;;;;;;43.03;20.17;;;;;;;-3.29;91.53;98671.44;5095032;28;20046;-73
2021/01/18 06:30:23;;;;;;;39.38;18.50;;;;;;;-3.29;91.74;98664.22;5102042;28;20136;-74
2021/01/18 06:32:58;;;;;;;30.25;15.32;;;;;;;-3.32;91.79;98669.16;5094340;28;20196;-75
2021/01/18 06:35:32;;;;;;;46.63;17.23;;;;;;;-3.36;91.85;98667.88;5104966;28;20028;-74
2021/01/18 06:38:03;;;;;;;35.35;16.15;;;;;;;-3.34;91.95;98663.16;5096568;28;20495;-74
2021/01/18 06:40:38;;;;;;;32.40;15.27;;;;;;;-3.23;91.91;98684.06;5094059;28;20024;-74
2021/01/18 06:43:05;;;;;;;37.28;18.50;;;;;;;-3.16;91.85;98674.22;5098356;28;20023;-75
2021/01/18 06:45:39;;;;;;;38.83;18.42;;;;;;;-3.26;92.05;98673.75;5093238;28;20082;-78
2021/01/18 06:48:09;;;;;;;36.63;17.58;;;;;;;-3.29;92.54;98668.78;5096732;28;20028;-76
2021/01/18 06:50:39;;;;;;;39.17;18.10;;;;;;;-3.40;92.87;98672.75;5093440;28;20031;-75
2021/01/18 06:53:25;;;;;;;42.15;19.05;;;;;;;-3.43;93.14;98665.13;5095031;28;20507;-75
2021/01/18 06:56:12;;;;;;;45.10;22.50;;;;;;;-3.37;92.87;98672.38;5089703;28;20032;-74
2021/01/18 06:59:28;;;;;;;40.78;20.50;;;;;;;-3.30;93.06;98683.97;5096623;28;20028;-75
2021/01/18 07:02:08;;;;;;;37.63;17.42;;;;;;;-3.20;92.62;98683.69;5052823;28;20048;-74
2021/01/18 07:04:43;;;;;;;44.00;21.85;;;;;;;-3.16;92.00;98673.44;5088677;28;20417;-75
2021/01/18 07:07:23;;;;;;;42.63;17.15;;;;;;;-3.10;92.26;98691.38;5087129;28;20055;-75
2021/01/18 07:09:55;;;;;;;38.88;19.52;;;;;;;-3.08;91.92;98692.84;5091011;28;20161;-76
2021/01/18 07:12:22;;;;;;;35.42;17.15;;;;;;;-3.02;92.06;98686.72;5092092;28;20024;-77
2021/01/18 07:14:57;;;;;;;35.08;19.30;;;;;;;-2.95;91.76;98694.81;5090879;28;20024;-76
2021/01/18 07:17:30;;;;;;;38.65;18.98;;;;;;;-3.02;91.66;98686.72;5112217;28;20030;-75
2021/01/18 07:19:58;;;;;;;42.65;19.77;;;;;;;-2.87;91.69;98692.84;5111647;28;20112;-75
2021/01/18 07:22:45;;;;;;;38.97;18.90;;;;;;;-2.86;91.29;98685.66;5110042;28;20460;-77
2021/01/18 07:25:12;;;;;;;41.30;17.65;;;;;;;-2.84;90.76;98678.25;5089939;28;20044;-79
2021/01/18 07:27:46;;;;;;;38.45;20.83;;;;;;;-2.67;90.51;98690.34;5097583;28;20146;-78
2021/01/18 07:30:12;;;;;;;42.70;19.10;;;;;;;-2.54;90.47;98679.75;5090965;28;20024;-75
2021/01/18 07:32:37;;;;;;;31.00;17.67;;;;;;;-2.29;89.37;98698.88;5099641;28;20046;-77
2021/01/18 07:35:04;;;;;;;44.10;18.75;;;;;;;-2.32;88.53;98697.41;5112006;28;20040;-78
2021/01/18 07:37:30;;;;;;;35.55;18.27;;;;;;;-2.07;88.10;98691.59;5112115;28;20028;-76
2021/01/18 07:40:08;;;;;;;37.53;16.25;;;;;;;-1.65;86.73;98694.09;5112217;28;20024;-76
2021/01/18 07:42:34;;;;;;;34.72;17.17;;;;;;;-1.31;84.12;98690.50;5105032;28;20047;-77
2021/01/18 07:45:12;;;;;;;34.25;17.98;;;;;;;-0.53;81.32;98691.69;5089954;28;20469;-78
2021/01/18 07:47:56;;;;;;;31.95;19.38;;;;;;;0.08;77.91;98694.94;5091138;28;20050;-76
2021/01/18 07:50:37;;;;;;;38.20;20.45;;;;;;;0.43;76.35;98696.28;5104472;28;20102;-75
2021/01/18 07:53:05;;;;;;;38.33;21.33;;;;;;;0.94;74.44;98690.88;5109993;28;20388;-76
2021/01/18 07:55:31;;;;;;;33.42;18.40;;;;;;;1.38;71.86;98682.69;5112101;28;20040;-76
2021/01/18 07:58:16;;;;;;;37.97;17.65;;;;;;;1.21;71.95;98691.53;5110343;28;20022;-76
2021/01/18 08:00:42;;;;;;;33.42;18.10;;;;;;;1.39;71.16;98697.84;5108384;28;20019;-76
2021/01/18 08:03:08;;;;;;;36.95;20.00;;;;;;;1.75;70.41;98694.47;5111717;28;20123;-75
2021/01/18 08:05:35;;;;;;;33.47;18.00;;;;;;;1.53;70.03;98685.09;5111757;28;20547;-74
2021/01/18 08:08:05;;;;;;;35.42;19.58;;;;;;;0.72;72.98;98679.59;5110071;28;20057;-74
2021/01/18 08:11:07;;;;;;;36.72;19.30;;;;;;;0.83;73.47;98689.69;5110269;28;20027;-74
2021/01/18 08:13:48;;;;;;;33.92;19.05;;;;;;;0.75;73.13;98698.00;5110358;28;20046;-75
2021/01/18 08:16:18;;;;;;;34.50;19.27;;;;;;;0.87;72.38;98695.47;5110387;28;20114;-74
2021/01/18 08:18:53;;;;;;;33.38;17.70;;;;;;;1.24;70.98;98686.56;5111131;28;20400;-75
2021/01/18 08:21:39;;;;;;;34.40;17.80;;;;;;;1.13;70.80;98699.91;5109669;28;20039;-74
2021/01/18 08:24:10;;;;;;;20.90;14.35;;;;;;;2.09;67.69;98695.78;5111873;28;20767;-75
2021/01/18 08:26:58;;;;;;;32.97;17.85;;;;;;;2.10;66.73;98700.13;5113643;27;20024;-75
2021/01/18 08:29:51;;;;;;;31.80;17.50;;;;;;;2.49;65.23;98706.97;5099903;28;20032;-75
2021/01/18 08:32:33;;;;;;;33.25;15.05;;;;;;;2.63;65.21;98695.00;5103919;28;20067;-75
2021/01/18 08:35:08;;;;;;;33.35;18.30;;;;;;;2.56;65.05;98702.34;5100615;28;20032;-76
2021/01/18 08:37:36;;;;;;;31.13;16.60;;;;;;;1.89;64.87;98712.16;5097667;28;20028;-75
2021/01/18 08:40:01;;;;;;;28.30;16.10;;;;;;;2.38;64.45;98710.44;5096596;28;20030;-75
2021/01/18 08:42:31;;;;;;;32.28;15.63;;;;;;;2.37;64.35;98711.47;5096534;28;20469;-75
2021/01/18 08:45:06;;;;;;;29.92;16.45;;;;;;;2.97;62.20;98705.16;5092401;28;20108;-76
2021/01/18 08:47:45;;;;;;;27.52;16.20;;;;;;;3.32;61.24;98704.47;5098928;28;20035;-75
2021/01/18 08:50:23;;;;;;;32.88;17.58;;;;;;;4.30;58.80;98711.75;5096452;28;20490;-76
2021/01/18 08:52:57;;;;;;;32.80;16.30;;;;;;;3.86;59.13;98704.22;5094702;28;20369;-77
2021/01/18 08:55:29;;;;;;;33.78;18.08;;;;;;;4.10;58.27;98705.06;5097036;28;20516;-75
2021/01/18 08:58:03;;;;;;;33.03;17.00;;;;;;;4.11;58.35;98704.81;5095041;28;20472;-76
2021/01/18 09:00:39;;;;;;;29.63;17.02;;;;;;;4.27;56.98;98712.22;5095042;28;20011;-74
2021/01/18 09:03:04;;;;;;;33.42;18.45;;;;;;;5.01;55.52;98713.25;5099239;28;20128;-74
2021/01/18 09:05:29;;;;;;;26.00;16.25;;;;;;;4.40;55.58;98705.75;5098188;28;20539;-75
2021/01/18 09:07:55;;;;;;;23.10;15.27;;;;;;;5.72;53.08;98714.59;5097695;28;20031;-76
2021/01/18 09:10:23;;;;;;;27.13;17.67;;;;;;;3.16;58.58;98714.84;5098406;28;20016;-79
2021/01/18 09:12:50;;;;;;;32.47;18.00;;;;;;;2.33;61.69;98718.38;5096713;28;20024;-76
2021/01/18 09:15:20;;;;;;;26.95;17.45;;;;;;;2.15;62.07;98711.91;5096301;28;20557;-76
2021/01/18 09:17:49;;;;;;;32.85;16.70;;;;;;;2.69;61.19;98715.69;5097760;28;20048;-78
2021/01/18 09:20:15;;;;;;;29.80;15.63;;;;;;;1.99;63.32;98717.88;5097712;28;20022;-75
2021/01/18 09:22:43;;;;;;;29.70;16.65;;;;;;;2.66;62.43;98718.84;5099180;28;20030;-77
2021/01/18 09:25:10;;;;;;;33.13;17.52;;;;;;;3.27;60.13;98707.84;5098197;28;20062;-77
2021/01/18 09:27:37;;;;;;;31.08;16.85;;;;;;;3.19;59.78;98703.59;5098977;28;20096;-75
2021/01/18 09:30:07;;;;;;;31.20;16.30;;;;;;;3.65;58.29;98724.53;5096757;28;20042;-77
2021/01/18 09:32:33;;;;;;;29.67;16.50;;;;;;;4.49;55.28;98701.59;5099842;28;20035;-78
2021/01/18 09:35:11;;;;;;;29.92;16.13;;;;;;;4.69;54.62;98712.06;5093774;28;20101;-79
2021/01/18 09:37:45;;;;;;;25.27;15.25;;;;;;;4.07;55.33;98713.66;5088033;28;20051;-76
2021/01/18 09:40:14;;;;;;;32.83;16.25;;;;;;;2.83;58.38;98705.53;5088554;28;20070;-77
2021/01/18 09:42:41;;;;;;;34.00;18.83;;;;;;;2.35;61.02;98706.28;5089462;28;20028;-75
2021/01/18 09:45:08;;;;;;;31.30;18.45;;;;;;;2.52;60.21;98710.06;5088031;28;20031;-75
2021/01/18 09:47:35;;;;;;;30.27;16.58;;;;;;;2.11;62.63;98702.59;5089314;28;20028;-75
2021/01/18 09:50:20;;;;;;;31.42;17.25;;;;;;;1.60;64.36;98688.53;5089041;28;20016;-74
2021/01/18 09:52:48;;;;;;;32.33;17.00;;;;;;;1.94;63.86;98693.41;5088907;28;20085;-76
2021/01/18 09:55:21;;;;;;;27.65;15.75;;;;;;;2.53;62.21;98697.41;5087803;28;20419;-75
2021/01/18 09:57:58;;;;;;;34.67;17.25;;;;;;;2.10;63.18;98698.25;5088896;28;20051;-75
2021/01/18 10:00:27;;;;;;;30.10;15.50;;;;;;;2.21;62.60;98694.00;5089340;28;20012;-75
2021/01/18 10:02:54;;;;;;;29.33;16.50;;;;;;;1.98;63.34;98701.91;5087898;28;20058;-75
2021/01/18 10:05:28;;;;;;;30.52;16.42;;;;;;;1.63;64.37;98682.72;5089171;28;20040;-76
2021/01/18 10:07:55;;;;;;;30.77;17.48;;;;;;;2.04;63.22;98682.97;5087458;28;20020;-75
2021/01/18 10:10:21;;;;;;;26.35;16.80;;;;;;;2.10;63.21;98676.66;5089665;28;20026;-77
2021/01/18 10:12:52;;;;;;;24.13;13.98;;;;;;;2.99;61.02;98673.31;5097853;28;20380;-78
2021/01/18 10:15:26;;;;;;;31.42;17.35;;;;;;;3.65;59.32;98675.03;5097466;28;20020;-76
2021/01/18 10:17:53;;;;;;;30.83;15.90;;;;;;;3.94;60.23;98684.09;5098628;28;20032;-76
2021/01/18 10:20:27;;;;;;;34.80;19.65;;;;;;;3.89;57.58;98665.84;5094889;28;20049;-75
2021/01/18 10:22:53;;;;;;;30.77;15.80;;;;;;;3.60;57.97;98677.59;5096439;28;20034;-74
2021/01/18 10:25:19;;;;;;;26.08;17.42;;;;;;;3.44;59.54;98660.19;5103080;28;20047;-76
2021/01/18 10:27:53;;;;;;;29.42;16.17;;;;;;;2.66;60.41;98667.53;5092683;28;20028;-75
2021/01/18 10:30:36;;;;;;;26.90;14.02;;;;;;;2.34;62.09;98657.94;5096061;28;20068;-74
2021/01/18 10:33:01;;;;;;;29.70;14.75;;;;;;;2.46;60.60;98653.44;5103019;28;20027;-75
2021/01/18 10:35:33;;;;;;;28.20;15.45;;;;;;;2.64;60.35;98645.31;5087567;28;20035;-75
2021/01/18 10:38:22;;;;;;;29.10;15.65;;;;;;;2.57;60.69;98656.19;5086835;28;20369;-74
2021/01/18 10:41:05;;;;;;;24.27;14.07;;;;;;;2.86;60.31;98654.59;5088882;28;20691;-75
2021/01/18 10:43:30;;;;;;;31.92;14.82;;;;;;;2.92;59.63;98653.66;5091640;28;20024;-75
2021/01/18 10:45:57;;;;;;;33.85;19.42;;;;;;;2.80;59.33;98641.16;5092486;28;20388;-75
2021/01/18 10:48:27;;;;;;;28.88;16.27;;;;;;;2.80;59.03;98652.78;5091653;28;20054;-75
2021/01/18 10:51:02;;;;;;;34.67;17.25;;;;;;;2.56;60.01;98653.75;5090726;28;20035;-74
2021/01/18 10:53:29;;;;;;;33.03;16.35;;;;;;;2.83;59.26;98638.00;5110400;28;20024;-75
2021/01/18 10:56:15;;;;;;;29.85;16.10;;;;;;;2.72;59.73;98636.91;5109544;28;20034;-74
2021/01/18 10:58:41;;;;;;;28.00;14.88;;;;;;;1.87;62.05;98633.34;5092640;28;20025;-75
2021/01/18 11:01:08;;;;;;;28.38;15.13;;;;;;;1.05;64.63;98629.06;5089836;28;20092;-74
2021/01/18 11:03:35;;;;;;;32.67;15.30;;;;;;;1.30;64.93;98637.19;5106702;28;20024;-74
2021/01/18 11:06:10;;;;;;;32.65;15.48;;;;;;;1.10;65.63;98641.88;5111064;28;20392;-74
2021/01/18 11:08:36;;;;;;;30.20;14.82;;;;;;;0.99;66.73;98624.56;5112642;28;20030;-75
2021/01/18 11:11:04;;;;;;;24.40;14.90;;;;;;;1.29;65.87;98618.53;5110584;28;20024;-75
2021/01/18 11:13:29;;;;;;;34.75;16.67;;;;;;;1.55;64.56;98635.31;5111414;28;20031;-75
2021/01/18 11:15:55;;;;;;;28.98;15.07;;;;;;;1.74;64.66;98633.47;5099319;28;20043;-75
2021/01/18 11:18:22;;;;;;;26.15;14.93;;;;;;;1.89;63.75;98625.84;5097237;28;20032;-75
2021/01/18 11:20:53;;;;;;;28.60;13.45;;;;;;;1.94;63.34;98620.59;5090233;28;20024;-76
2021/01/18 11:23:18;;;;;;;35.80;18.58;;;;;;;1.80;63.71;98621.81;5092069;28;20106;-76
2021/01/18 11:25:44;;;;;;;30.73;15.32;;;;;;;1.74;64.03;98611.91;5091530;28;20044;-77
2021/01/18 11:28:17;;;;;;;30.42;15.60;;;;;;;1.79;63.82;98592.34;5106630;28;20030;-74
2021/01/18 11:30:43;;;;;;;31.02;16.38;;;;;;;1.81;63.91;98593.78;5112225;28;20015;-76
2021/01/18 11:33:09;;;;;;;29.60;15.50;;;;;;;1.46;64.29;98595.38;5111138;28;20028;-75
2021/01/18 11:35:36;;;;;;;26.75;14.32;;;;;;;1.56;64.74;98593.00;5091907;28;20036;-75
2021/01/18 11:38:02;;;;;;;31.58;16.02;;;;;;;1.52;64.67;98586.41;5090889;28;20106;-76